sensor_id;sensor_type;location;lat;lon;timestamp;P1;durP1;ratioP1;P2;durP2;ratioP2
10275;SDS011;5183;51.190;6.820;2022-07-23T00:01:18;29.50;;;22.80;;
10275;SDS011;5183;51.190;6.820;2022-07-23T00:03:46;25.00;;;21.47;;
10275;SDS011;5183;51.190;6.820;2022-07-23T00:06:13;29.57;;;22.70;;
10275;SDS011;5183;51.190;6.820;2022-07-23T00:08:40;30.17;;;24.40;;
10275;SDS011;5183;51.190;6.820;2022-07-23T00:11:07;32.20;;;24.97;;
10275;SDS011;5183;51.190;6.820;2022-07-23T00:13:34;31.40;;;23.87;;
10275;SDS011;5183;51.190;6.820;2022-07-23T00:16:01;33.53;;;25.63;;
10275;SDS011;5183;51.190;6.820;2022-07-23T00:18:28;37.67;;;27.80;;
10275;SDS011;5183;51.190;6.820;2022-07-23T00:20:57;36.13;;;26.53;;
10275;SDS011;5183;51.190;6.820;2022-07-23T00:23:24;35.77;;;27.17;;
10275;SDS011;5183;51.190;6.820;2022-07-23T00:25:51;39.57;;;27.37;;
10275;SDS011;5183;51.190;6.820;2022-07-23T00:28:18;41.20;;;29.23;;
10275;SDS011;5183;51.190;6.820;2022-07-23T00:30:45;38.33;;;27.27;;
10275;SDS011;5183;51.190;6.820;2022-07-23T00:33:12;38.47;;;28.30;;
10275;SDS011;5183;51.190;6.820;2022-07-23T00:35:39;39.60;;;28.97;;
10275;SDS011;5183;51.190;6.820;2022-07-23T00:38:09;35.73;;;27.47;;
10275;SDS011;5183;51.190;6.820;2022-07-23T00:40:36;40.97;;;28.23;;
10275;SDS011;5183;51.190;6.820;2022-07-23T00:43:04;39.13;;;28.20;;
10275;SDS011;5183;51.190;6.820;2022-07-23T00:45:31;37.00;;;28.10;;
10275;SDS011;5183;51.190;6.820;2022-07-23T00:47:59;36.67;;;27.03;;
10275;SDS011;5183;51.190;6.820;2022-07-23T00:50:26;39.60;;;28.80;;
10275;SDS011;5183;51.190;6.820;2022-07-23T00:52:53;35.80;;;27.53;;
10275;SDS011;5183;51.190;6.820;2022-07-23T00:55:21;39.43;;;28.57;;
10275;SDS011;5183;51.190;6.820;2022-07-23T00:57:48;41.47;;;29.10;;
10275;SDS011;5183;51.190;6.820;2022-07-23T01:00:16;39.67;;;27.93;;
10275;SDS011;5183;51.190;6.820;2022-07-23T01:02:44;38.07;;;28.73;;
10275;SDS011;5183;51.190;6.820;2022-07-23T01:05:11;37.93;;;28.33;;
10275;SDS011;5183;51.190;6.820;2022-07-23T01:07:38;35.60;;;27.67;;
10275;SDS011;5183;51.190;6.820;2022-07-23T01:10:05;37.73;;;28.27;;
10275;SDS011;5183;51.190;6.820;2022-07-23T01:12:54;39.50;;;28.03;;
10275;SDS011;5183;51.190;6.820;2022-07-23T01:15:21;35.57;;;26.87;;
10275;SDS011;5183;51.190;6.820;2022-07-23T01:17:49;38.57;;;27.50;;
10275;SDS011;5183;51.190;6.820;2022-07-23T01:20:16;38.03;;;28.17;;
10275;SDS011;5183;51.190;6.820;2022-07-23T01:22:45;35.43;;;27.73;;
10275;SDS011;5183;51.190;6.820;2022-07-23T01:25:12;41.33;;;30.27;;
10275;SDS011;5183;51.190;6.820;2022-07-23T01:27:39;46.13;;;31.03;;
10275;SDS011;5183;51.190;6.820;2022-07-23T01:30:07;41.47;;;30.03;;
10275;SDS011;5183;51.190;6.820;2022-07-23T01:32:35;43.57;;;31.77;;
10275;SDS011;5183;51.190;6.820;2022-07-23T01:35:02;44.03;;;31.13;;
10275;SDS011;5183;51.190;6.820;2022-07-23T01:37:29;47.53;;;32.80;;
10275;SDS011;5183;51.190;6.820;2022-07-23T01:39:57;47.17;;;31.50;;
10275;SDS011;5183;51.190;6.820;2022-07-23T01:42:25;44.67;;;31.13;;
10275;SDS011;5183;51.190;6.820;2022-07-23T01:44:52;43.93;;;30.40;;
10275;SDS011;5183;51.190;6.820;2022-07-23T01:47:18;42.73;;;30.67;;
10275;SDS011;5183;51.190;6.820;2022-07-23T01:49:45;43.40;;;30.13;;
10275;SDS011;5183;51.190;6.820;2022-07-23T01:52:12;39.97;;;29.50;;
10275;SDS011;5183;51.190;6.820;2022-07-23T01:54:39;42.13;;;30.33;;
10275;SDS011;5183;51.190;6.820;2022-07-23T01:57:07;42.70;;;30.17;;
10275;SDS011;5183;51.190;6.820;2022-07-23T01:59:35;42.93;;;30.13;;
10275;SDS011;5183;51.190;6.820;2022-07-23T02:02:02;42.90;;;29.70;;
10275;SDS011;5183;51.190;6.820;2022-07-23T02:04:30;41.33;;;28.17;;
10275;SDS011;5183;51.190;6.820;2022-07-23T02:07:00;39.37;;;28.43;;
10275;SDS011;5183;51.190;6.820;2022-07-23T02:09:27;37.17;;;27.00;;
10275;SDS011;5183;51.190;6.820;2022-07-23T02:11:54;39.13;;;27.90;;
10275;SDS011;5183;51.190;6.820;2022-07-23T02:14:22;35.50;;;26.67;;
10275;SDS011;5183;51.190;6.820;2022-07-23T02:16:49;35.10;;;26.13;;
10275;SDS011;5183;51.190;6.820;2022-07-23T02:19:16;37.50;;;27.43;;
10275;SDS011;5183;51.190;6.820;2022-07-23T02:21:43;35.63;;;26.93;;
10275;SDS011;5183;51.190;6.820;2022-07-23T02:24:10;38.80;;;27.17;;
10275;SDS011;5183;51.190;6.820;2022-07-23T02:26:37;35.60;;;27.00;;
10275;SDS011;5183;51.190;6.820;2022-07-23T02:29:04;35.13;;;25.30;;
10275;SDS011;5183;51.190;6.820;2022-07-23T02:31:33;36.50;;;26.03;;
10275;SDS011;5183;51.190;6.820;2022-07-23T02:34:00;34.63;;;25.23;;
10275;SDS011;5183;51.190;6.820;2022-07-23T02:36:28;37.10;;;26.23;;
10275;SDS011;5183;51.190;6.820;2022-07-23T02:38:55;37.03;;;27.27;;
10275;SDS011;5183;51.190;6.820;2022-07-23T02:41:22;39.60;;;26.67;;
10275;SDS011;5183;51.190;6.820;2022-07-23T02:43:49;38.97;;;27.27;;
10275;SDS011;5183;51.190;6.820;2022-07-23T02:46:16;40.80;;;28.83;;
10275;SDS011;5183;51.190;6.820;2022-07-23T02:48:44;40.57;;;27.27;;
10275;SDS011;5183;51.190;6.820;2022-07-23T02:51:11;44.00;;;29.57;;
10275;SDS011;5183;51.190;6.820;2022-07-23T02:53:38;36.47;;;27.83;;
10275;SDS011;5183;51.190;6.820;2022-07-23T02:56:05;43.20;;;27.73;;
10275;SDS011;5183;51.190;6.820;2022-07-23T02:58:32;38.53;;;28.17;;
10275;SDS011;5183;51.190;6.820;2022-07-23T03:00:59;41.20;;;28.20;;
10275;SDS011;5183;51.190;6.820;2022-07-23T03:03:26;40.23;;;29.07;;
10275;SDS011;5183;51.190;6.820;2022-07-23T03:05:54;43.03;;;29.47;;
10275;SDS011;5183;51.190;6.820;2022-07-23T03:08:21;41.50;;;29.20;;
10275;SDS011;5183;51.190;6.820;2022-07-23T03:10:48;45.20;;;29.77;;
10275;SDS011;5183;51.190;6.820;2022-07-23T03:13:15;40.70;;;29.00;;
10275;SDS011;5183;51.190;6.820;2022-07-23T03:15:42;42.17;;;28.73;;
10275;SDS011;5183;51.190;6.820;2022-07-23T03:18:08;44.30;;;30.53;;
10275;SDS011;5183;51.190;6.820;2022-07-23T03:20:35;41.87;;;29.93;;
10275;SDS011;5183;51.190;6.820;2022-07-23T03:23:03;43.93;;;31.20;;
10275;SDS011;5183;51.190;6.820;2022-07-23T03:25:30;40.53;;;29.93;;
10275;SDS011;5183;51.190;6.820;2022-07-23T03:27:57;45.53;;;31.60;;
10275;SDS011;5183;51.190;6.820;2022-07-23T03:30:24;46.93;;;32.43;;
10275;SDS011;5183;51.190;6.820;2022-07-23T03:32:51;44.90;;;29.40;;
10275;SDS011;5183;51.190;6.820;2022-07-23T03:35:18;47.63;;;28.60;;
10275;SDS011;5183;51.190;6.820;2022-07-23T03:37:45;40.40;;;29.03;;
10275;SDS011;5183;51.190;6.820;2022-07-23T03:40:13;45.20;;;29.10;;
10275;SDS011;5183;51.190;6.820;2022-07-23T03:42:40;44.17;;;31.17;;
10275;SDS011;5183;51.190;6.820;2022-07-23T03:45:07;47.03;;;31.00;;
10275;SDS011;5183;51.190;6.820;2022-07-23T03:47:35;44.33;;;31.60;;
10275;SDS011;5183;51.190;6.820;2022-07-23T03:50:02;44.43;;;31.33;;
10275;SDS011;5183;51.190;6.820;2022-07-23T03:52:29;44.50;;;30.97;;
10275;SDS011;5183;51.190;6.820;2022-07-23T03:54:56;49.30;;;33.43;;
10275;SDS011;5183;51.190;6.820;2022-07-23T03:57:24;52.70;;;34.50;;
10275;SDS011;5183;51.190;6.820;2022-07-23T03:59:51;47.70;;;32.77;;
10275;SDS011;5183;51.190;6.820;2022-07-23T04:02:18;51.03;;;33.07;;
10275;SDS011;5183;51.190;6.820;2022-07-23T04:04:45;52.60;;;33.70;;
10275;SDS011;5183;51.190;6.820;2022-07-23T04:07:12;51.77;;;31.87;;
10275;SDS011;5183;51.190;6.820;2022-07-23T04:09:39;58.50;;;34.53;;
10275;SDS011;5183;51.190;6.820;2022-07-23T04:12:07;48.77;;;33.13;;
10275;SDS011;5183;51.190;6.820;2022-07-23T04:14:35;50.23;;;32.73;;
10275;SDS011;5183;51.190;6.820;2022-07-23T04:17:02;55.37;;;33.53;;
10275;SDS011;5183;51.190;6.820;2022-07-23T04:19:29;53.00;;;33.20;;
10275;SDS011;5183;51.190;6.820;2022-07-23T04:21:56;49.60;;;33.47;;
10275;SDS011;5183;51.190;6.820;2022-07-23T04:24:23;51.23;;;34.23;;
10275;SDS011;5183;51.190;6.820;2022-07-23T04:26:50;54.20;;;34.63;;
10275;SDS011;5183;51.190;6.820;2022-07-23T04:29:17;51.70;;;34.57;;
10275;SDS011;5183;51.190;6.820;2022-07-23T04:31:46;60.27;;;35.80;;
10275;SDS011;5183;51.190;6.820;2022-07-23T04:34:13;55.40;;;35.00;;
10275;SDS011;5183;51.190;6.820;2022-07-23T04:36:39;51.97;;;33.43;;
10275;SDS011;5183;51.190;6.820;2022-07-23T04:39:06;52.70;;;33.23;;
10275;SDS011;5183;51.190;6.820;2022-07-23T04:41:33;53.80;;;33.43;;
10275;SDS011;5183;51.190;6.820;2022-07-23T04:44:00;58.63;;;34.43;;
10275;SDS011;5183;51.190;6.820;2022-07-23T04:46:27;61.23;;;36.13;;
10275;SDS011;5183;51.190;6.820;2022-07-23T04:48:56;54.90;;;34.07;;
10275;SDS011;5183;51.190;6.820;2022-07-23T04:51:22;51.93;;;33.27;;
10275;SDS011;5183;51.190;6.820;2022-07-23T04:53:49;55.07;;;34.33;;
10275;SDS011;5183;51.190;6.820;2022-07-23T04:56:16;55.87;;;35.13;;
10275;SDS011;5183;51.190;6.820;2022-07-23T04:58:43;55.80;;;35.17;;
10275;SDS011;5183;51.190;6.820;2022-07-23T05:01:10;58.30;;;33.93;;
10275;SDS011;5183;51.190;6.820;2022-07-23T05:03:37;55.87;;;36.73;;
10275;SDS011;5183;51.190;6.820;2022-07-23T05:06:05;55.13;;;35.43;;
10275;SDS011;5183;51.190;6.820;2022-07-23T05:08:32;54.30;;;36.20;;
10275;SDS011;5183;51.190;6.820;2022-07-23T05:10:59;49.67;;;34.63;;
10275;SDS011;5183;51.190;6.820;2022-07-23T05:13:25;48.40;;;35.17;;
10275;SDS011;5183;51.190;6.820;2022-07-23T05:15:52;54.50;;;35.67;;
10275;SDS011;5183;51.190;6.820;2022-07-23T05:18:19;48.87;;;33.23;;
10275;SDS011;5183;51.190;6.820;2022-07-23T05:20:46;50.33;;;34.13;;
10275;SDS011;5183;51.190;6.820;2022-07-23T05:23:14;48.43;;;34.00;;
10275;SDS011;5183;51.190;6.820;2022-07-23T05:25:41;44.53;;;31.73;;
10275;SDS011;5183;51.190;6.820;2022-07-23T05:28:08;43.13;;;31.57;;
10275;SDS011;5183;51.190;6.820;2022-07-23T05:30:35;41.47;;;30.77;;
10275;SDS011;5183;51.190;6.820;2022-07-23T05:33:02;46.57;;;31.87;;
10275;SDS011;5183;51.190;6.820;2022-07-23T05:35:29;43.97;;;32.23;;
10275;SDS011;5183;51.190;6.820;2022-07-23T05:37:55;48.97;;;34.67;;
10275;SDS011;5183;51.190;6.820;2022-07-23T05:40:24;44.57;;;31.63;;
10275;SDS011;5183;51.190;6.820;2022-07-23T05:42:50;46.27;;;32.03;;
10275;SDS011;5183;51.190;6.820;2022-07-23T05:45:17;43.23;;;30.80;;
10275;SDS011;5183;51.190;6.820;2022-07-23T05:47:45;47.47;;;33.07;;
10275;SDS011;5183;51.190;6.820;2022-07-23T05:50:13;43.97;;;31.47;;
10275;SDS011;5183;51.190;6.820;2022-07-23T05:52:41;40.23;;;31.00;;
10275;SDS011;5183;51.190;6.820;2022-07-23T05:55:09;44.73;;;30.77;;
10275;SDS011;5183;51.190;6.820;2022-07-23T05:57:38;44.70;;;31.17;;
10275;SDS011;5183;51.190;6.820;2022-07-23T06:00:07;44.53;;;30.63;;
10275;SDS011;5183;51.190;6.820;2022-07-23T06:02:35;45.07;;;32.40;;
10275;SDS011;5183;51.190;6.820;2022-07-23T06:05:03;40.93;;;29.30;;
10275;SDS011;5183;51.190;6.820;2022-07-23T06:07:30;43.77;;;30.30;;
10275;SDS011;5183;51.190;6.820;2022-07-23T06:09:57;43.00;;;31.40;;
10275;SDS011;5183;51.190;6.820;2022-07-23T06:12:24;42.90;;;30.97;;
10275;SDS011;5183;51.190;6.820;2022-07-23T06:14:52;40.20;;;29.87;;
10275;SDS011;5183;51.190;6.820;2022-07-23T06:17:19;44.27;;;31.13;;
10275;SDS011;5183;51.190;6.820;2022-07-23T06:19:46;37.40;;;29.23;;
10275;SDS011;5183;51.190;6.820;2022-07-23T06:22:13;41.33;;;29.83;;
10275;SDS011;5183;51.190;6.820;2022-07-23T06:24:40;37.73;;;29.20;;
10275;SDS011;5183;51.190;6.820;2022-07-23T06:27:07;33.57;;;26.67;;
10275;SDS011;5183;51.190;6.820;2022-07-23T06:29:33;36.10;;;28.90;;
10275;SDS011;5183;51.190;6.820;2022-07-23T06:32:02;37.90;;;27.60;;
10275;SDS011;5183;51.190;6.820;2022-07-23T06:34:29;37.67;;;29.03;;
10275;SDS011;5183;51.190;6.820;2022-07-23T06:36:56;36.83;;;28.50;;
10275;SDS011;5183;51.190;6.820;2022-07-23T06:39:22;35.97;;;28.03;;
10275;SDS011;5183;51.190;6.820;2022-07-23T06:41:50;34.20;;;27.03;;
10275;SDS011;5183;51.190;6.820;2022-07-23T06:44:17;31.20;;;25.43;;
10275;SDS011;5183;51.190;6.820;2022-07-23T06:46:44;35.90;;;28.17;;
10275;SDS011;5183;51.190;6.820;2022-07-23T06:49:12;30.83;;;25.00;;
10275;SDS011;5183;51.190;6.820;2022-07-23T06:51:39;36.27;;;27.37;;
10275;SDS011;5183;51.190;6.820;2022-07-23T06:54:06;32.23;;;25.40;;
10275;SDS011;5183;51.190;6.820;2022-07-23T06:56:33;30.57;;;23.30;;
10275;SDS011;5183;51.190;6.820;2022-07-23T06:59:00;29.53;;;23.37;;
10275;SDS011;5183;51.190;6.820;2022-07-23T07:01:27;29.13;;;24.00;;
10275;SDS011;5183;51.190;6.820;2022-07-23T07:03:54;31.80;;;24.13;;
10275;SDS011;5183;51.190;6.820;2022-07-23T07:06:22;34.57;;;25.13;;
10275;SDS011;5183;51.190;6.820;2022-07-23T07:08:49;35.30;;;26.00;;
10275;SDS011;5183;51.190;6.820;2022-07-23T07:11:16;30.23;;;24.00;;
10275;SDS011;5183;51.190;6.820;2022-07-23T07:13:43;36.30;;;26.87;;
10275;SDS011;5183;51.190;6.820;2022-07-23T07:16:09;34.67;;;26.37;;
10275;SDS011;5183;51.190;6.820;2022-07-23T07:18:36;40.50;;;30.07;;
10275;SDS011;5183;51.190;6.820;2022-07-23T07:21:03;41.90;;;29.87;;
10275;SDS011;5183;51.190;6.820;2022-07-23T07:23:31;38.63;;;31.10;;
10275;SDS011;5183;51.190;6.820;2022-07-23T07:25:58;37.77;;;28.73;;
10275;SDS011;5183;51.190;6.820;2022-07-23T07:28:25;39.13;;;29.00;;
10275;SDS011;5183;51.190;6.820;2022-07-23T07:30:52;33.83;;;27.17;;
10275;SDS011;5183;51.190;6.820;2022-07-23T07:33:19;35.07;;;26.50;;
10275;SDS011;5183;51.190;6.820;2022-07-23T07:35:46;31.43;;;25.57;;
10275;SDS011;5183;51.190;6.820;2022-07-23T07:38:14;29.77;;;24.03;;
10275;SDS011;5183;51.190;6.820;2022-07-23T07:40:42;29.10;;;24.33;;
10275;SDS011;5183;51.190;6.820;2022-07-23T07:43:09;27.63;;;20.43;;
10275;SDS011;5183;51.190;6.820;2022-07-23T07:45:36;26.93;;;19.80;;
10275;SDS011;5183;51.190;6.820;2022-07-23T07:48:03;23.07;;;18.97;;
10275;SDS011;5183;51.190;6.820;2022-07-23T07:50:30;27.27;;;19.07;;
10275;SDS011;5183;51.190;6.820;2022-07-23T07:52:57;21.93;;;17.90;;
10275;SDS011;5183;51.190;6.820;2022-07-23T07:55:24;22.87;;;17.87;;
10275;SDS011;5183;51.190;6.820;2022-07-23T07:57:53;19.50;;;17.40;;
10275;SDS011;5183;51.190;6.820;2022-07-23T08:00:20;20.27;;;16.37;;
10275;SDS011;5183;51.190;6.820;2022-07-23T08:02:48;22.73;;;17.40;;
10275;SDS011;5183;51.190;6.820;2022-07-23T08:05:18;21.27;;;18.97;;
10275;SDS011;5183;51.190;6.820;2022-07-23T08:07:46;22.97;;;19.40;;
10275;SDS011;5183;51.190;6.820;2022-07-23T08:10:13;22.70;;;20.40;;
10275;SDS011;5183;51.190;6.820;2022-07-23T08:12:40;22.07;;;19.77;;
10275;SDS011;5183;51.190;6.820;2022-07-23T08:15:11;20.73;;;18.43;;
10275;SDS011;5183;51.190;6.820;2022-07-23T08:17:39;22.13;;;19.33;;
10275;SDS011;5183;51.190;6.820;2022-07-23T08:20:07;23.30;;;20.70;;
10275;SDS011;5183;51.190;6.820;2022-07-23T08:22:42;23.87;;;21.57;;
10275;SDS011;5183;51.190;6.820;2022-07-23T08:25:13;25.77;;;22.33;;
10275;SDS011;5183;51.190;6.820;2022-07-23T08:27:41;23.07;;;20.80;;
10275;SDS011;5183;51.190;6.820;2022-07-23T08:30:08;23.70;;;21.30;;
10275;SDS011;5183;51.190;6.820;2022-07-23T08:32:49;26.87;;;24.27;;
10275;SDS011;5183;51.190;6.820;2022-07-23T08:35:18;28.93;;;24.77;;
10275;SDS011;5183;51.190;6.820;2022-07-23T08:37:48;28.53;;;25.50;;
10275;SDS011;5183;51.190;6.820;2022-07-23T08:40:15;28.57;;;25.67;;
10275;SDS011;5183;51.190;6.820;2022-07-23T08:42:42;28.47;;;24.33;;
10275;SDS011;5183;51.190;6.820;2022-07-23T08:45:11;26.63;;;24.00;;
10275;SDS011;5183;51.190;6.820;2022-07-23T08:47:39;30.07;;;27.13;;
10275;SDS011;5183;51.190;6.820;2022-07-23T08:50:08;30.47;;;27.33;;
10275;SDS011;5183;51.190;6.820;2022-07-23T08:52:37;26.70;;;23.80;;
10275;SDS011;5183;51.190;6.820;2022-07-23T08:55:06;26.47;;;23.77;;
10275;SDS011;5183;51.190;6.820;2022-07-23T08:57:34;27.90;;;25.03;;
10275;SDS011;5183;51.190;6.820;2022-07-23T09:00:02;29.00;;;26.07;;
10275;SDS011;5183;51.190;6.820;2022-07-23T09:02:30;26.50;;;23.77;;
10275;SDS011;5183;51.190;6.820;2022-07-23T09:04:57;26.17;;;23.47;;
10275;SDS011;5183;51.190;6.820;2022-07-23T09:07:25;25.07;;;22.43;;
10275;SDS011;5183;51.190;6.820;2022-07-23T09:10:04;24.07;;;21.57;;
10275;SDS011;5183;51.190;6.820;2022-07-23T09:12:35;21.40;;;18.47;;
10275;SDS011;5183;51.190;6.820;2022-07-23T09:15:03;23.93;;;21.10;;
10275;SDS011;5183;51.190;6.820;2022-07-23T09:17:39;22.77;;;20.50;;
10275;SDS011;5183;51.190;6.820;2022-07-23T09:20:08;18.33;;;16.53;;
10275;SDS011;5183;51.190;6.820;2022-07-23T09:22:38;21.03;;;18.70;;
10275;SDS011;5183;51.190;6.820;2022-07-23T09:25:07;21.77;;;19.70;;
10275;SDS011;5183;51.190;6.820;2022-07-23T09:27:47;18.80;;;16.90;;
10275;SDS011;5183;51.190;6.820;2022-07-23T09:30:18;16.90;;;13.80;;
10275;SDS011;5183;51.190;6.820;2022-07-23T09:35:45;17.50;;;14.63;;
10275;SDS011;5183;51.190;6.820;2022-07-23T09:38:14;13.83;;;12.30;;
10275;SDS011;5183;51.190;6.820;2022-07-23T09:40:42;15.53;;;13.00;;
10275;SDS011;5183;51.190;6.820;2022-07-23T09:43:10;13.87;;;12.47;;
10275;SDS011;5183;51.190;6.820;2022-07-23T09:45:38;13.93;;;12.43;;
10275;SDS011;5183;51.190;6.820;2022-07-23T09:48:11;14.77;;;12.03;;
10275;SDS011;5183;51.190;6.820;2022-07-23T09:50:39;11.03;;;9.27;;
10275;SDS011;5183;51.190;6.820;2022-07-23T09:53:06;11.00;;;8.90;;
10275;SDS011;5183;51.190;6.820;2022-07-23T09:55:35;11.00;;;9.87;;
10275;SDS011;5183;51.190;6.820;2022-07-23T09:58:04;12.17;;;9.80;;
10275;SDS011;5183;51.190;6.820;2022-07-23T10:00:33;15.97;;;12.33;;
10275;SDS011;5183;51.190;6.820;2022-07-23T10:03:00;11.53;;;9.10;;
10275;SDS011;5183;51.190;6.820;2022-07-23T10:05:29;8.07;;;7.17;;
10275;SDS011;5183;51.190;6.820;2022-07-23T10:07:57;11.00;;;9.60;;
10275;SDS011;5183;51.190;6.820;2022-07-23T10:10:25;11.53;;;8.13;;
10275;SDS011;5183;51.190;6.820;2022-07-23T10:12:55;9.10;;;8.03;;
10275;SDS011;5183;51.190;6.820;2022-07-23T10:15:39;10.23;;;9.10;;
10275;SDS011;5183;51.190;6.820;2022-07-23T10:18:07;14.60;;;11.90;;
10275;SDS011;5183;51.190;6.820;2022-07-23T10:20:37;10.47;;;8.73;;
10275;SDS011;5183;51.190;6.820;2022-07-23T10:23:05;10.77;;;8.57;;
10275;SDS011;5183;51.190;6.820;2022-07-23T10:25:40;12.60;;;7.90;;
10275;SDS011;5183;51.190;6.820;2022-07-23T10:28:21;11.00;;;7.10;;
10275;SDS011;5183;51.190;6.820;2022-07-23T10:31:00;8.80;;;6.93;;
10275;SDS011;5183;51.190;6.820;2022-07-23T10:33:37;8.33;;;6.40;;
10275;SDS011;5183;51.190;6.820;2022-07-23T10:36:15;9.87;;;7.20;;
10275;SDS011;5183;51.190;6.820;2022-07-23T10:38:48;7.17;;;5.57;;
10275;SDS011;5183;51.190;6.820;2022-07-23T10:41:30;9.07;;;6.93;;
10275;SDS011;5183;51.190;6.820;2022-07-23T10:44:09;9.37;;;6.60;;
10275;SDS011;5183;51.190;6.820;2022-07-23T10:46:53;7.77;;;6.47;;
10275;SDS011;5183;51.190;6.820;2022-07-23T10:49:31;8.03;;;5.50;;
10275;SDS011;5183;51.190;6.820;2022-07-23T10:52:21;6.93;;;5.20;;
10275;SDS011;5183;51.190;6.820;2022-07-23T10:54:50;6.83;;;4.80;;
10275;SDS011;5183;51.190;6.820;2022-07-23T10:57:19;7.07;;;5.23;;
10275;SDS011;5183;51.190;6.820;2022-07-23T11:02:57;6.20;;;5.30;;
10275;SDS011;5183;51.190;6.820;2022-07-23T11:05:26;8.97;;;6.00;;
10275;SDS011;5183;51.190;6.820;2022-07-23T11:08:13;7.97;;;5.90;;
10275;SDS011;5183;51.190;6.820;2022-07-23T11:10:45;8.70;;;5.60;;
10275;SDS011;5183;51.190;6.820;2022-07-23T11:13:31;7.53;;;5.90;;
10275;SDS011;5183;51.190;6.820;2022-07-23T11:16:04;6.70;;;5.93;;
10275;SDS011;5183;51.190;6.820;2022-07-23T11:24:10;6.40;;;4.77;;
10275;SDS011;5183;51.190;6.820;2022-07-23T11:26:45;6.23;;;4.97;;
10275;SDS011;5183;51.190;6.820;2022-07-23T11:29:37;6.73;;;5.07;;
10275;SDS011;5183;51.190;6.820;2022-07-23T11:32:30;7.13;;;4.20;;
10275;SDS011;5183;51.190;6.820;2022-07-23T11:35:01;5.77;;;4.00;;
10275;SDS011;5183;51.190;6.820;2022-07-23T11:37:31;6.47;;;5.07;;
10275;SDS011;5183;51.190;6.820;2022-07-23T11:40:00;6.23;;;4.23;;
10275;SDS011;5183;51.190;6.820;2022-07-23T11:42:30;6.33;;;4.53;;
10275;SDS011;5183;51.190;6.820;2022-07-23T11:44:56;5.73;;;4.00;;
10275;SDS011;5183;51.190;6.820;2022-07-23T11:47:25;8.00;;;4.77;;
10275;SDS011;5183;51.190;6.820;2022-07-23T11:49:53;5.07;;;4.20;;
10275;SDS011;5183;51.190;6.820;2022-07-23T11:52:23;5.67;;;4.43;;
10275;SDS011;5183;51.190;6.820;2022-07-23T11:54:52;6.37;;;4.10;;
10275;SDS011;5183;51.190;6.820;2022-07-23T11:57:23;8.73;;;5.00;;
10275;SDS011;5183;51.190;6.820;2022-07-23T11:59:52;5.47;;;4.63;;
10275;SDS011;5183;51.190;6.820;2022-07-23T12:02:22;7.43;;;4.57;;
10275;SDS011;5183;51.190;6.820;2022-07-23T12:04:50;6.80;;;4.70;;
10275;SDS011;5183;51.190;6.820;2022-07-23T12:07:29;7.33;;;5.30;;
10275;SDS011;5183;51.190;6.820;2022-07-23T12:09:58;7.57;;;4.83;;
10275;SDS011;5183;51.190;6.820;2022-07-23T12:12:27;7.40;;;5.10;;
10275;SDS011;5183;51.190;6.820;2022-07-23T12:15:00;7.47;;;4.50;;
10275;SDS011;5183;51.190;6.820;2022-07-23T12:17:28;7.60;;;4.80;;
10275;SDS011;5183;51.190;6.820;2022-07-23T12:19:56;7.43;;;4.63;;
10275;SDS011;5183;51.190;6.820;2022-07-23T12:22:25;6.93;;;4.43;;
10275;SDS011;5183;51.190;6.820;2022-07-23T12:25:01;6.23;;;4.07;;
10275;SDS011;5183;51.190;6.820;2022-07-23T12:27:30;6.07;;;3.83;;
10275;SDS011;5183;51.190;6.820;2022-07-23T12:29:57;4.20;;;3.80;;
10275;SDS011;5183;51.190;6.820;2022-07-23T12:32:25;4.80;;;4.00;;
10275;SDS011;5183;51.190;6.820;2022-07-23T12:35:02;6.70;;;4.33;;
10275;SDS011;5183;51.190;6.820;2022-07-23T12:37:31;4.27;;;3.17;;
10275;SDS011;5183;51.190;6.820;2022-07-23T12:43:03;5.60;;;3.60;;
10275;SDS011;5183;51.190;6.820;2022-07-23T12:45:42;8.63;;;4.17;;
10275;SDS011;5183;51.190;6.820;2022-07-23T12:48:21;7.30;;;3.77;;
10275;SDS011;5183;51.190;6.820;2022-07-23T12:50:51;6.57;;;4.10;;
10275;SDS011;5183;51.190;6.820;2022-07-23T12:53:23;4.03;;;3.63;;
10275;SDS011;5183;51.190;6.820;2022-07-23T12:55:56;4.95;;;3.20;;
10275;SDS011;5183;51.190;6.820;2022-07-23T12:58:32;4.78;;;3.55;;
10275;SDS011;5183;51.190;6.820;2022-07-23T13:01:07;4.97;;;3.30;;
10275;SDS011;5183;51.190;6.820;2022-07-23T13:03:35;5.13;;;3.33;;
10275;SDS011;5183;51.190;6.820;2022-07-23T13:06:05;4.38;;;3.42;;
10275;SDS011;5183;51.190;6.820;2022-07-23T13:08:33;5.90;;;3.80;;
10275;SDS011;5183;51.190;6.820;2022-07-23T13:11:02;4.78;;;3.13;;
10275;SDS011;5183;51.190;6.820;2022-07-23T13:13:31;4.47;;;2.75;;
10275;SDS011;5183;51.190;6.820;2022-07-23T13:16:00;3.05;;;2.75;;
10275;SDS011;5183;51.190;6.820;2022-07-23T13:18:28;3.45;;;2.92;;
10275;SDS011;5183;51.190;6.820;2022-07-23T13:20:55;3.70;;;2.78;;
10275;SDS011;5183;51.190;6.820;2022-07-23T13:23:22;3.97;;;2.80;;
10275;SDS011;5183;51.190;6.820;2022-07-23T13:25:50;3.92;;;2.60;;
10275;SDS011;5183;51.190;6.820;2022-07-23T13:28:17;3.63;;;2.88;;
10275;SDS011;5183;51.190;6.820;2022-07-23T13:30:47;4.25;;;2.50;;
10275;SDS011;5183;51.190;6.820;2022-07-23T13:33:16;3.45;;;2.20;;
10275;SDS011;5183;51.190;6.820;2022-07-23T13:35:43;3.20;;;2.90;;
10275;SDS011;5183;51.190;6.820;2022-07-23T13:38:10;3.53;;;3.17;;
10275;SDS011;5183;51.190;6.820;2022-07-23T13:40:38;3.38;;;2.63;;
10275;SDS011;5183;51.190;6.820;2022-07-23T13:43:07;3.72;;;2.47;;
10275;SDS011;5183;51.190;6.820;2022-07-23T13:45:35;3.83;;;2.70;;
10275;SDS011;5183;51.190;6.820;2022-07-23T13:48:05;3.50;;;2.30;;
10275;SDS011;5183;51.190;6.820;2022-07-23T13:50:33;2.85;;;2.28;;
10275;SDS011;5183;51.190;6.820;2022-07-23T13:53:01;2.55;;;2.30;;
10275;SDS011;5183;51.190;6.820;2022-07-23T13:55:29;3.58;;;2.50;;
10275;SDS011;5183;51.190;6.820;2022-07-23T13:57:56;3.83;;;2.33;;
10275;SDS011;5183;51.190;6.820;2022-07-23T14:00:24;2.97;;;2.50;;
10275;SDS011;5183;51.190;6.820;2022-07-23T14:02:51;4.03;;;2.53;;
10275;SDS011;5183;51.190;6.820;2022-07-23T14:05:19;3.72;;;2.35;;
10275;SDS011;5183;51.190;6.820;2022-07-23T14:07:46;5.25;;;2.72;;
10275;SDS011;5183;51.190;6.820;2022-07-23T14:10:14;3.70;;;2.60;;
10275;SDS011;5183;51.190;6.820;2022-07-23T14:12:42;2.95;;;2.25;;
10275;SDS011;5183;51.190;6.820;2022-07-23T14:15:09;2.50;;;2.30;;
10275;SDS011;5183;51.190;6.820;2022-07-23T14:17:37;3.65;;;2.30;;
10275;SDS011;5183;51.190;6.820;2022-07-23T14:20:05;4.00;;;2.83;;
10275;SDS011;5183;51.190;6.820;2022-07-23T14:22:34;2.80;;;2.45;;
10275;SDS011;5183;51.190;6.820;2022-07-23T14:25:02;3.15;;;2.85;;
10275;SDS011;5183;51.190;6.820;2022-07-23T14:27:29;3.22;;;2.88;;
10275;SDS011;5183;51.190;6.820;2022-07-23T14:29:56;2.80;;;2.55;;
10275;SDS011;5183;51.190;6.820;2022-07-23T14:32:23;2.78;;;2.40;;
10275;SDS011;5183;51.190;6.820;2022-07-23T14:34:50;4.00;;;2.80;;
10275;SDS011;5183;51.190;6.820;2022-07-23T14:37:17;3.55;;;2.60;;
10275;SDS011;5183;51.190;6.820;2022-07-23T14:39:46;4.50;;;2.70;;
10275;SDS011;5183;51.190;6.820;2022-07-23T14:42:13;2.78;;;2.42;;
10275;SDS011;5183;51.190;6.820;2022-07-23T14:44:40;4.20;;;2.50;;
10275;SDS011;5183;51.190;6.820;2022-07-23T14:47:08;2.67;;;2.15;;
10275;SDS011;5183;51.190;6.820;2022-07-23T14:49:35;4.88;;;2.72;;
10275;SDS011;5183;51.190;6.820;2022-07-23T14:52:02;3.22;;;2.53;;
10275;SDS011;5183;51.190;6.820;2022-07-23T14:54:30;2.97;;;2.35;;
10275;SDS011;5183;51.190;6.820;2022-07-23T14:56:59;2.58;;;2.38;;
10275;SDS011;5183;51.190;6.820;2022-07-23T14:59:27;3.42;;;2.45;;
10275;SDS011;5183;51.190;6.820;2022-07-23T15:01:55;3.45;;;2.63;;
10275;SDS011;5183;51.190;6.820;2022-07-23T15:04:22;2.47;;;2.28;;
10275;SDS011;5183;51.190;6.820;2022-07-23T15:06:49;3.85;;;2.50;;